Aérodrome :
LOGIN :

S'inscrire | Disclaimer

   EN    FR    IT 

 










Légende :    VFR   VFR Marginal   IFR   IFR Intensif   IFR Très Intensif
Visi : 
Plafond : 
>= 8 km
>= 3000ft
5 à 8 km
1000 à 3000 ft
1500m à 5 km
500 à 1000 ft
800 à 1500m
200 à 500 ft
< 800m
< 200 ft
Symboles :   Orages  Brouillard  Fortes neiges  Fortes précipitations  Vent > 20 kt
SIGMETs :   Divers  Orages  Givrage  Turbulence  Onde Orograph.  Cendres Volcan.






- Altitude de l'aérodrome : 2595 ft
- Code IATA : SLM


LESA - Salamanca Matacan

DERNIER METAR :
  • 171430Z 30013KT 9999 FEW010 SCT025 12/05 Q1029

METARs EXPIRÉS :
  • 171400Z 31014KT 9999 FEW010 BKN022 11/05 Q1029
  • 171330Z 32012KT 290V350 9999 SCT010 BKN018 11/07 Q1029
  • 171300Z 31012KT 9999 SCT010 BKN017 11/08 Q1029
  • 171230Z 31013KT 280V340 9999 BKN007 BKN018 11/09 Q1029 RERA
  • 171200Z 29011KT 8000 -RA SCT007 BKN017 11/10 Q1029

TAF TAF LESA
Valide du 17 à 12h jusqu'au 18 à 12h UTC


171100Z 1712/1812 28012KT 9999 BKN020 TX13/1715Z TNM03/1806Z
PROB30
TEMPO 1712/1714 3000 DZ BR BKN007
TEMPO 1712/1716 BKN012
BECMG 1720/1721 01010KT
TEMPO 1802/1809 3000 BR BKN005
PROB40
TEMPO 1804/1809 0100 FZFG VV001



MET'MAP, la Météo Aéronautique d'un coup d'oeil ! - Copyright ORBIFLY Décembre 2007 - Disclaimer

ORBIFLY MET'MAP TEAM :

Programmation & Développement : Alexandra Zaïnal
Sur une idée originale de : Baudouin d'Aumeries
Assistance à la programmation : Marc-Olivier Méhu
Soutien technique & logistique : Manuel Goepfert

Contact : metmap@orbifly.com




SOURCES & CREDITS :

   NOAA